»·PEaware :: AAY651 KGJT-KIWA

AAY651 :: KGJT-KIWA

FLIGHT INFORMATION

Flight Status: Arrived
Operator:
Allegiant Air
More flights by this operator :: More flights under this callsign
Pilot: Chandler S. (807)
Aircraft: AIRBUS A320
(A320)
More flights by this aircraft type
Origin: KGJT Grand Junction Regl
United States
Destination: KIWA Williams Gateway
United States
More flights between these airports :: More routes between these airports
Route: +JNC INW HUUTY1
File this flight plan on PilotEdge
Remarks:
Altitude:
(Current/Filed)
34,000ft
Speed:
(Current/Filed)
400kts
Departed: 16-Jul-20 06:32 PM
Arrived: 16-Jul-20 07:40 PM
Distance/Time
Traveled:
381nm/1:07
Distance/Time
To Go:
Arrived

Flight Plot

Page will automatically refresh every two minutes.

Flight plan parsing failed; only flown route is shown


Map Options




Map Legend


Flown Route
Filed Route
Departure Airport
Arrival Airport
Navaid (VOR, NDB)
Fix

Horizontal Profiles

Position Reports

Time Latitude Longitude Heading Altitude Ground
Speed
16-Jul-20 18:13 39.123093 -108.528345 254 4864ft 0kts
16-Jul-20 18:13 39.123093 -108.528345 254 4864ft 0kts
16-Jul-20 18:15 39.123093 -108.528345 254 4864ft 0kts
16-Jul-20 18:16 39.123093 -108.528345 254 4864ft 0kts
16-Jul-20 18:16 39.123093 -108.528345 254 4864ft 0kts
16-Jul-20 18:17 39.123093 -108.528345 254 4864ft 0kts
16-Jul-20 18:19 39.123093 -108.528345 254 4864ft 0kts
16-Jul-20 18:19 39.123093 -108.528345 254 4864ft 0kts
16-Jul-20 18:20 39.123093 -108.528345 254 4864ft 0kts
16-Jul-20 18:21 39.123093 -108.528345 254 4864ft 0kts
16-Jul-20 18:22 39.123093 -108.528345 254 4864ft 0kts
16-Jul-20 18:23 39.123093 -108.528345 254 4864ft 0kts
16-Jul-20 18:24 39.123025 -108.528012 308 4864ft 2kts
16-Jul-20 18:25 39.122705 -108.527391 303 4864ft 0kts
16-Jul-20 18:26 39.122704 -108.527389 303 4864ft 0kts
16-Jul-20 18:27 39.123081 -108.527989 321 4864ft 14kts
16-Jul-20 18:28 39.127183 -108.532663 305 4864ft 27kts
16-Jul-20 18:29 39.131729 -108.540888 304 4864ft 29kts
16-Jul-20 18:30 39.134103 -108.544821 349 4864ft 2kts
16-Jul-20 18:31 39.125744 -108.527429 129 4918ft 181kts
16-Jul-20 18:32 39.081973 -108.486718 160 8156ft 244kts
16-Jul-20 18:33 39.015948 -108.449913 160 11306ft 266kts
16-Jul-20 18:34 38.943390 -108.408924 160 13906ft 311kts
16-Jul-20 18:35 38.855995 -108.365050 160 14031ft 347kts
16-Jul-20 18:36 38.778550 -108.336886 188 14045ft 343kts
16-Jul-20 18:37 38.685624 -108.394636 210 15815ft 383kts
16-Jul-20 18:38 38.592433 -108.459546 210 19073ft 377kts
16-Jul-20 18:39 38.501618 -108.522764 210 22341ft 366kts
16-Jul-20 18:40 38.414174 -108.583503 210 25576ft 350kts
16-Jul-20 18:41 38.331436 -108.640822 210 28821ft 326kts
16-Jul-20 18:42 38.255923 -108.693022 209 31564ft 307kts
16-Jul-20 18:43 38.180203 -108.745297 208 33343ft 312kts
16-Jul-20 18:44 38.101913 -108.799191 208 34264ft 337kts
16-Jul-20 18:45 38.012967 -108.860281 208 34258ft 384kts
16-Jul-20 18:46 37.913840 -108.928095 208 34265ft 422kts
16-Jul-20 18:47 37.807997 -109.000249 208 34272ft 439kts
16-Jul-20 18:48 37.700797 -109.073056 208 34262ft 434kts
16-Jul-20 18:49 37.594696 -109.144930 209 34260ft 430kts
16-Jul-20 18:50 37.489321 -109.216087 209 34271ft 427kts
16-Jul-20 18:51 37.384405 -109.286716 209 34270ft 427kts
16-Jul-20 18:52 37.279320 -109.357226 209 34271ft 427kts
16-Jul-20 18:53 37.173875 -109.427751 209 34271ft 427kts
16-Jul-20 18:54 37.068673 -109.497892 208 34270ft 429kts
16-Jul-20 18:55 36.961831 -109.568907 207 34269ft 438kts
16-Jul-20 18:56 36.854166 -109.640223 207 34270ft 439kts
16-Jul-20 18:57 36.746269 -109.711460 207 34270ft 439kts
16-Jul-20 18:58 36.637946 -109.782759 207 34270ft 439kts
16-Jul-20 18:59 36.529900 -109.853649 207 34284ft 438kts
16-Jul-20 19:00 36.421773 -109.924365 207 34293ft 438kts
16-Jul-20 19:01 36.313513 -109.994945 207 34343ft 438kts
16-Jul-20 19:02 36.205740 -110.064986 207 34340ft 438kts
16-Jul-20 19:03 36.097651 -110.135011 207 34294ft 438kts
16-Jul-20 19:04 35.989146 -110.205088 207 34191ft 439kts
16-Jul-20 19:05 35.885920 -110.271551 207 34201ft 439kts
16-Jul-20 19:06 35.780211 -110.339408 207 34199ft 439kts
16-Jul-20 19:07 35.671787 -110.408797 207 34200ft 439kts
16-Jul-20 19:08 35.563180 -110.478089 207 34200ft 439kts
16-Jul-20 19:09 35.454276 -110.547358 207 33788ft 436kts
16-Jul-20 19:10 35.347452 -110.615082 207 32181ft 428kts
16-Jul-20 19:11 35.242523 -110.681425 206 30505ft 425kts
16-Jul-20 19:12 35.138819 -110.746789 206 28342ft 416kts
16-Jul-20 19:13 35.026123 -110.787344 177 26351ft 432kts
16-Jul-20 19:14 34.907778 -110.765746 172 24855ft 427kts
16-Jul-20 19:15 34.806094 -110.746396 169 23634ft 436kts
16-Jul-20 19:16 34.686863 -110.723788 169 22292ft 427kts
16-Jul-20 19:17 34.569753 -110.701545 170 21328ft 422kts
16-Jul-20 19:18 34.453946 -110.679701 170 20376ft 417kts
16-Jul-20 19:19 34.339251 -110.658330 170 20268ft 416kts
16-Jul-20 19:20 34.231157 -110.638179 170 19038ft 373kts
16-Jul-20 19:21 34.131868 -110.644456 209 17320ft 362kts
16-Jul-20 19:22 34.044875 -110.702879 209 15523ft 351kts
16-Jul-20 19:23 33.960297 -110.759393 209 13736ft 340kts
16-Jul-20 19:24 33.878479 -110.813974 209 12401ft 333kts
16-Jul-20 19:25 33.809382 -110.886841 232 12335ft 332kts
16-Jul-20 19:26 33.753023 -110.973783 232 11319ft 321kts
16-Jul-20 19:27 33.700098 -111.055112 232 10283ft 293kts
16-Jul-20 19:28 33.649293 -111.133108 232 10106ft 295kts
16-Jul-20 19:29 33.600190 -111.212677 234 9856ft 296kts
16-Jul-20 19:30 33.547532 -111.287604 230 8680ft 292kts
16-Jul-20 19:31 33.501052 -111.359187 233 7218ft 252kts
16-Jul-20 19:32 33.461962 -111.424256 238 6025ft 224kts
16-Jul-20 19:33 33.426872 -111.486974 232 5025ft 230kts
16-Jul-20 19:34 33.386932 -111.542375 231 4028ft 206kts
16-Jul-20 19:35 33.336586 -111.561112 184 3927ft 175kts
16-Jul-20 19:36 33.288710 -111.572804 209 2950ft 185kts
16-Jul-20 19:37 33.272503 -111.619514 308 2383ft 161kts
16-Jul-20 19:38 33.301384 -111.653891 316 1389ft 132kts
16-Jul-20 19:39 33.310793 -111.664791 315 1388ft 29kts
16-Jul-20 19:40 33.307930 -111.667451 180 1388ft 21kts
16-Jul-20 19:41 33.306342 -111.668449 269 1388ft 0kts
16-Jul-20 19:42 33.306342 -111.668449 269 1388ft 0kts
16-Jul-20 19:43 33.306342 -111.668449 269 1388ft 0kts
16-Jul-20 19:44 33.306342 -111.668449 269 1388ft 0kts

Navigation Log

Ident Type
Flight plan parsing failed, navigation log unavailable